Time;durP1;ratioP1;P1;durP2;ratioP2;P2;SDS_P1;SDS_P2;PMS_P1;PMS_P2;Temp;Humidity;BMP_temperature;BMP_pressure;BME280_temperature;BME280_humidity;BME280_pressure;Samples;Min_cycle;Max_cycle;Signal;HPM_P1;HPM_P2
2022/10/10 00:00:16;;;;;;;;;;;20.80;67.10;;;;;;5021784;28;832;-67
2022/10/10 00:02:41;;;;;;;;;;;20.80;67.00;;;;;;5020946;28;868;-67
2022/10/10 00:05:07;;;;;;;;;;;20.80;67.10;;;;;;5021488;28;892;-67
2022/10/10 00:07:32;;;;;;;;;;;20.80;67.00;;;;;;5019900;28;1267;-67
2022/10/10 00:09:57;;;;;;;;;;;20.80;67.10;;;;;;5023205;28;901;-67
2022/10/10 00:12:23;;;;;;;;;;;20.80;67.10;;;;;;5007565;28;864;-67
2022/10/10 00:14:48;;;;;;;;;;;20.70;67.00;;;;;;5020416;28;1914;-67
2022/10/10 00:17:14;;;;;;;;;;;20.80;67.20;;;;;;5018162;28;1254;-67
2022/10/10 00:19:39;;;;;;;;;;;20.80;67.10;;;;;;5019074;28;876;-67
2022/10/10 00:22:05;;;;;;;;;;;20.70;67.10;;;;;;5021612;28;888;-67
2022/10/10 00:24:30;;;;;;;;;;;20.80;67.10;;;;;;5020680;28;947;-67
2022/10/10 00:26:55;;;;;;;;;;;20.80;67.10;;;;;;5020300;28;1297;-67
2022/10/10 00:29:21;;;;;;;;;;;20.80;67.10;;;;;;5021812;28;947;-67
2022/10/10 00:31:46;;;;;;;;;;;20.80;67.00;;;;;;5021536;28;1375;-67
2022/10/10 00:34:12;;;;;;;;;;;20.80;67.10;;;;;;5021900;28;920;-67
2022/10/10 00:36:37;;;;;;;;;;;20.70;67.10;;;;;;5023473;28;2027;-67
2022/10/10 00:39:03;;;;;;;;;;;20.80;67.10;;;;;;5019297;28;927;-67
2022/10/10 00:41:28;;;;;;;;;;;20.70;67.00;;;;;;4995489;28;1567;-67
2022/10/10 00:44:07;;;;;;;;;;;20.70;67.10;;;;;;5018078;28;787;-67
2022/10/10 00:46:33;;;;;;;;;;;20.70;67.00;;;;;;5000998;28;1328;-67
2022/10/10 00:48:58;;;;;;;;;;;20.70;67.20;;;;;;5020341;28;804;-68
2022/10/10 00:51:23;;;;;;;;;;;20.70;67.10;;;;;;5024888;28;864;-68
2022/10/10 00:53:50;;;;;;;;;;;20.70;67.10;;;;;;5020903;28;1027;-67
2022/10/10 00:56:16;;;;;;;;;;;20.70;67.20;;;;;;5004983;28;1898;-67
2022/10/10 00:58:42;;;;;;;;;;;20.70;67.20;;;;;;5002563;28;1303;-67
2022/10/10 01:01:07;;;;;;;;;;;20.80;67.30;;;;;;5000217;28;1045;-67
2022/10/10 01:03:33;;;;;;;;;;;20.80;67.30;;;;;;5004499;28;1015;-67
2022/10/10 01:05:58;;;;;;;;;;;20.70;67.20;;;;;;5024083;28;1034;-67
2022/10/10 01:08:24;;;;;;;;;;;20.70;67.30;;;;;;5004991;28;1390;-67
2022/10/10 01:10:55;;;;;;;;;;;20.70;67.20;;;;;;5017751;28;785;-67
2022/10/10 01:13:25;;;;;;;;;;;20.70;67.30;;;;;;5016226;28;986;-67
2022/10/10 01:15:56;;;;;;;;;;;20.70;67.20;;;;;;5004152;28;1914;-68
2022/10/10 01:18:24;;;;;;;;;;;20.70;67.30;;;;;;5001609;28;1248;-68
2022/10/10 01:20:50;;;;;;;;;;;20.70;67.30;;;;;;5000742;28;919;-68
2022/10/10 01:23:37;;;;;;;;;;;20.70;67.30;;;;;;5020885;28;1362;-68
2022/10/10 01:26:19;;;;;;;;;;;20.70;67.50;;;;;;5021382;28;846;-68
2022/10/10 01:28:54;;;;;;;;;;;20.70;67.30;;;;;;5003295;28;1370;-67
2022/10/10 01:31:21;;;;;;;;;;;20.70;68.00;;;;;;5003869;28;1479;-68
2022/10/10 01:33:46;;;;;;;;;;;20.70;67.30;;;;;;5001597;28;902;-68
2022/10/10 01:36:15;;;;;;;;;;;20.70;67.40;;;;;;5018160;28;1995;-68
2022/10/10 01:38:59;;;;;;;;;;;20.80;67.30;;;;;;5003044;28;1278;-68
2022/10/10 01:41:30;;;;;;;;;;;20.70;67.30;;;;;;5017024;28;1019;-67
2022/10/10 01:43:55;;;;;;;;;;;20.70;67.40;;;;;;5000025;28;927;-68
2022/10/10 01:46:21;;;;;;;;;;;20.70;67.40;;;;;;5002517;28;1074;-67
2022/10/10 01:48:48;;;;;;;;;;;20.70;67.30;;;;;;5017861;28;1235;-68
2022/10/10 01:51:17;;;;;;;;;;;20.70;67.40;;;;;;5003440;28;950;-67
2022/10/10 01:54:06;;;;;;;;;;;20.70;67.40;;;;;;5019488;28;903;-67
2022/10/10 01:56:34;;;;;;;;;;;20.70;67.30;;;;;;5007022;28;1910;-67
2022/10/10 01:59:08;;;;;;;;;;;20.70;67.50;;;;;;5017560;28;1015;-67
2022/10/10 02:01:53;;;;;;;;;;;20.70;67.40;;;;;;5006531;28;970;-67
2022/10/10 02:04:23;;;;;;;;;;;20.70;67.40;;;;;;5015113;28;1112;-68
2022/10/10 02:07:08;;;;;;;;;;;20.70;67.40;;;;;;5001535;28;1779;-68
2022/10/10 02:09:37;;;;;;;;;;;20.70;67.40;;;;;;5016270;28;832;-67
2022/10/10 02:12:02;;;;;;;;;;;20.70;67.40;;;;;;5001935;28;903;-67
2022/10/10 02:14:30;;;;;;;;;;;20.70;67.40;;;;;;5001360;28;1048;-67
2022/10/10 02:16:55;;;;;;;;;;;20.70;67.60;;;;;;5002234;28;1919;-68
2022/10/10 02:19:21;;;;;;;;;;;20.70;67.50;;;;;;4999532;28;857;-67
2022/10/10 02:21:47;;;;;;;;;;;20.70;67.50;;;;;;5001464;28;886;-68
2022/10/10 02:24:13;;;;;;;;;;;20.70;67.50;;;;;;5003003;28;868;-67
2022/10/10 02:26:38;;;;;;;;;;;20.70;67.50;;;;;;5003991;28;1544;-67
2022/10/10 02:29:06;;;;;;;;;;;20.70;67.50;;;;;;4999293;28;1035;-68
2022/10/10 02:31:37;;;;;;;;;;;20.70;67.40;;;;;;5020685;28;1357;-68
2022/10/10 02:34:05;;;;;;;;;;;20.70;67.50;;;;;;5018670;28;1030;-68
2022/10/10 02:36:30;;;;;;;;;;;20.70;67.60;;;;;;5002733;28;1967;-68
2022/10/10 02:38:56;;;;;;;;;;;20.70;67.50;;;;;;5000117;28;951;-67
2022/10/10 02:41:21;;;;;;;;;;;20.70;67.50;;;;;;5006271;28;1047;-67
2022/10/10 02:43:47;;;;;;;;;;;20.70;67.50;;;;;;5002863;28;941;-67
2022/10/10 02:46:12;;;;;;;;;;;20.70;67.50;;;;;;5003967;28;1058;-67
2022/10/10 02:48:38;;;;;;;;;;;20.70;67.70;;;;;;5002391;28;1253;-67
2022/10/10 02:51:04;;;;;;;;;;;20.70;67.50;;;;;;5004630;28;1272;-67
2022/10/10 02:53:29;;;;;;;;;;;20.70;67.60;;;;;;5017084;28;970;-67
2022/10/10 02:55:55;;;;;;;;;;;20.70;67.60;;;;;;5005710;28;1951;-68
2022/10/10 02:58:20;;;;;;;;;;;20.70;67.60;;;;;;5020380;28;1267;-68
2022/10/10 03:00:45;;;;;;;;;;;20.70;67.60;;;;;;5021230;28;836;-68
2022/10/10 03:03:11;;;;;;;;;;;20.70;67.50;;;;;;5015065;28;789;-67
2022/10/10 03:05:36;;;;;;;;;;;20.70;67.40;;;;;;5018723;28;809;-68
2022/10/10 03:08:02;;;;;;;;;;;20.70;67.50;;;;;;5023191;28;1347;-68
2022/10/10 03:10:27;;;;;;;;;;;20.70;67.50;;;;;;5021672;28;1023;-68
2022/10/10 03:12:53;;;;;;;;;;;20.70;67.70;;;;;;5020298;28;814;-67
2022/10/10 03:15:18;;;;;;;;;;;20.70;67.60;;;;;;5012021;28;1962;-67
2022/10/10 03:17:43;;;;;;;;;;;20.70;67.50;;;;;;5021106;28;1340;-68
2022/10/10 03:20:10;;;;;;;;;;;20.70;67.50;;;;;;5023155;28;855;-67
2022/10/10 03:22:35;;;;;;;;;;;20.80;67.40;;;;;;5020228;28;855;-67
2022/10/10 03:25:01;;;;;;;;;;;20.80;67.30;;;;;;5003990;28;1023;-67
2022/10/10 03:27:26;;;;;;;;;;;20.80;67.20;;;;;;5005213;28;1425;-67
2022/10/10 03:29:52;;;;;;;;;;;20.80;67.20;;;;;;5020500;28;974;-67
2022/10/10 03:32:17;;;;;;;;;;;20.90;67.00;;;;;;5021385;28;1444;-67
2022/10/10 03:34:43;;;;;;;;;;;20.80;66.90;;;;;;5023162;28;1965;-67
2022/10/10 03:37:08;;;;;;;;;;;20.90;66.80;;;;;;5021749;28;1374;-68
2022/10/10 03:39:34;;;;;;;;;;;20.90;66.90;;;;;;5007550;28;975;-68
2022/10/10 03:41:59;;;;;;;;;;;20.90;66.70;;;;;;5023438;28;875;-68
2022/10/10 03:44:25;;;;;;;;;;;20.90;66.70;;;;;;5023660;28;1050;-68
2022/10/10 03:46:50;;;;;;;;;;;21.00;66.60;;;;;;5001632;28;1292;-68
2022/10/10 03:49:16;;;;;;;;;;;21.00;66.60;;;;;;5022106;28;817;-68
2022/10/10 03:51:41;;;;;;;;;;;21.00;67.20;;;;;;5007235;28;1327;-68
2022/10/10 03:54:07;;;;;;;;;;;21.00;66.40;;;;;;5020118;28;875;-67
2022/10/10 03:56:32;;;;;;;;;;;21.00;66.40;;;;;;5005572;28;1882;-67
2022/10/10 03:58:59;;;;;;;;;;;21.00;66.30;;;;;;5019503;28;922;-67
2022/10/10 04:01:25;;;;;;;;;;;21.10;66.40;;;;;;5019299;28;771;-67
2022/10/10 04:03:51;;;;;;;;;;;21.10;66.30;;;;;;4987135;28;801;-67
2022/10/10 04:06:16;;;;;;;;;;;21.10;66.30;;;;;;5020872;28;801;-67
2022/10/10 04:08:42;;;;;;;;;;;21.10;66.30;;;;;;5022232;28;1241;-67
2022/10/10 04:11:07;;;;;;;;;;;21.10;66.10;;;;;;5021119;28;909;-67
2022/10/10 04:13:33;;;;;;;;;;;21.10;66.00;;;;;;5019516;28;801;-67
2022/10/10 04:15:58;;;;;;;;;;;21.20;66.10;;;;;;5021522;28;1965;-68
2022/10/10 04:18:24;;;;;;;;;;;21.20;66.10;;;;;;5019216;28;1248;-67
2022/10/10 04:20:49;;;;;;;;;;;21.30;66.00;;;;;;5005525;28;804;-67
2022/10/10 04:23:14;;;;;;;;;;;21.40;65.90;;;;;;5020186;28;1023;-67
2022/10/10 04:25:40;;;;;;;;;;;21.50;65.70;;;;;;5020244;28;1394;-67
2022/10/10 04:28:06;;;;;;;;;;;21.50;65.60;;;;;;5019023;28;1707;-67
2022/10/10 04:30:32;;;;;;;;;;;21.60;65.50;;;;;;5022935;28;862;-67
2022/10/10 04:32:57;;;;;;;;;;;21.70;65.40;;;;;;5023800;28;1062;-67
2022/10/10 04:35:23;;;;;;;;;;;21.70;65.20;;;;;;5020424;28;1906;-67
2022/10/10 04:37:48;;;;;;;;;;;21.80;65.00;;;;;;5018488;28;1271;-67
2022/10/10 04:40:13;;;;;;;;;;;21.90;65.00;;;;;;5002229;28;987;-67
2022/10/10 04:42:39;;;;;;;;;;;21.90;64.80;;;;;;5018733;28;805;-67
2022/10/10 04:45:05;;;;;;;;;;;22.00;64.60;;;;;;5001105;28;849;-67
2022/10/10 04:47:31;;;;;;;;;;;22.00;64.50;;;;;;5020363;28;1283;-67
2022/10/10 04:49:56;;;;;;;;;;;22.00;64.40;;;;;;5010829;28;820;-67
2022/10/10 04:52:22;;;;;;;;;;;22.00;64.30;;;;;;5018879;28;1153;-67
2022/10/10 04:54:47;;;;;;;;;;;22.10;64.40;;;;;;5019528;28;1914;-67
2022/10/10 04:57:13;;;;;;;;;;;22.10;64.30;;;;;;5002717;28;1268;-67
2022/10/10 04:59:38;;;;;;;;;;;22.10;64.30;;;;;;5018480;28;926;-67
2022/10/10 05:02:03;;;;;;;;;;;22.10;64.30;;;;;;5019849;28;816;-67
2022/10/10 05:04:29;;;;;;;;;;;22.10;64.30;;;;;;5017440;28;808;-68
2022/10/10 05:06:54;;;;;;;;;;;22.10;64.10;;;;;;5018186;28;1335;-67
2022/10/10 05:09:20;;;;;;;;;;;22.10;64.00;;;;;;5019802;28;892;-67
2022/10/10 05:11:45;;;;;;;;;;;22.10;63.80;;;;;;5015030;28;930;-68
2022/10/10 05:14:10;;;;;;;;;;;22.20;63.70;;;;;;5015969;28;998;-68
2022/10/10 05:16:36;;;;;;;;;;;22.20;63.60;;;;;;5018065;28;1907;-67
2022/10/10 05:19:01;;;;;;;;;;;22.20;63.50;;;;;;5018068;28;1291;-67
2022/10/10 05:21:27;;;;;;;;;;;22.20;63.40;;;;;;5021468;28;866;-68
2022/10/10 05:23:52;;;;;;;;;;;22.20;63.30;;;;;;5003030;28;837;-67
2022/10/10 05:26:19;;;;;;;;;;;22.20;63.20;;;;;;5019894;28;1360;-68
2022/10/10 05:28:45;;;;;;;;;;;22.20;63.20;;;;;;5015998;28;1271;-67
2022/10/10 05:31:10;;;;;;;;;;;22.20;63.10;;;;;;5019272;28;1443;-67
2022/10/10 05:33:35;;;;;;;;;;;22.20;63.10;;;;;;5017522;28;867;-68
2022/10/10 05:36:04;;;;;;;;;;;22.20;63.10;;;;;;5021001;28;1906;-68
2022/10/10 05:38:30;;;;;;;;;;;22.20;63.10;;;;;;4999603;28;1392;-68
2022/10/10 05:40:55;;;;;;;;;;;22.20;63.20;;;;;;5019144;28;868;-68
2022/10/10 05:43:21;;;;;;;;;;;22.20;63.20;;;;;;5019004;28;1266;-69
2022/10/10 05:45:46;;;;;;;;;;;22.20;63.20;;;;;;5001381;28;810;-68
2022/10/10 05:48:11;;;;;;;;;;;22.10;63.20;;;;;;5017742;28;1354;-68
2022/10/10 05:50:38;;;;;;;;;;;22.20;63.20;;;;;;5019479;28;847;-68
2022/10/10 05:53:05;;;;;;;;;;;22.10;63.20;;;;;;5000502;28;794;-68
2022/10/10 05:55:31;;;;;;;;;;;22.10;63.30;;;;;;5018433;28;1906;-68
2022/10/10 05:57:56;;;;;;;;;;;22.10;63.30;;;;;;5015551;28;1365;-69
2022/10/10 06:00:22;;;;;;;;;;;22.10;63.30;;;;;;5018662;28;1457;-70
2022/10/10 06:02:47;;;;;;;;;;;22.10;63.40;;;;;;5014744;28;874;-68
2022/10/10 06:05:13;;;;;;;;;;;22.00;63.40;;;;;;5016589;28;931;-68
2022/10/10 06:07:38;;;;;;;;;;;22.10;63.50;;;;;;5019891;28;1340;-69
2022/10/10 06:10:04;;;;;;;;;;;22.00;63.50;;;;;;5002891;28;1409;-67
2022/10/10 06:12:29;;;;;;;;;;;22.00;63.50;;;;;;4995342;28;1122;-68
2022/10/10 06:14:56;;;;;;;;;;;22.00;63.60;;;;;;5019190;28;1914;-67
2022/10/10 06:17:22;;;;;;;;;;;22.00;63.70;;;;;;5018954;28;1316;-67
2022/10/10 06:19:47;;;;;;;;;;;22.00;63.70;;;;;;5017655;28;1034;-67
2022/10/10 06:22:13;;;;;;;;;;;22.00;63.70;;;;;;5011028;28;845;-68
2022/10/10 06:24:38;;;;;;;;;;;22.00;63.70;;;;;;5010395;28;5621;-68
2022/10/10 06:27:03;;;;;;;;;;;21.90;63.70;;;;;;5018299;28;3688;-68
2022/10/10 06:29:29;;;;;;;;;;;21.90;63.70;;;;;;5016955;28;1322;-68
2022/10/10 06:31:54;;;;;;;;;;;21.90;63.60;;;;;;5028745;28;847;-68
2022/10/10 06:34:20;;;;;;;;;;;21.90;63.70;;;;;;5018963;28;1883;-68
2022/10/10 06:36:48;;;;;;;;;;;21.90;63.80;;;;;;5018111;28;1979;-68
2022/10/10 06:39:13;;;;;;;;;;;21.90;63.80;;;;;;5015940;28;866;-68
2022/10/10 06:41:39;;;;;;;;;;;21.90;63.90;;;;;;5022175;28;986;-68
2022/10/10 06:44:04;;;;;;;;;;;21.90;64.10;;;;;;5007278;28;1259;-68
2022/10/10 06:46:33;;;;;;;;;;;21.90;64.00;;;;;;5024210;28;1285;-68
2022/10/10 06:48:58;;;;;;;;;;;21.80;64.00;;;;;;5024557;28;903;-68
2022/10/10 06:51:24;;;;;;;;;;;21.90;64.10;;;;;;5006111;28;937;-68
2022/10/10 06:53:50;;;;;;;;;;;21.80;64.00;;;;;;5008592;28;895;-67
2022/10/10 06:56:20;;;;;;;;;;;21.90;64.00;;;;;;5020391;28;1902;-68
2022/10/10 06:58:45;;;;;;;;;;;21.90;64.00;;;;;;5024876;28;1279;-67
2022/10/10 07:01:11;;;;;;;;;;;21.90;64.00;;;;;;5021432;28;1906;-68
2022/10/10 07:03:36;;;;;;;;;;;21.90;64.00;;;;;;5022832;28;1863;-68
2022/10/10 07:06:02;;;;;;;;;;;22.00;64.00;;;;;;5021161;28;1327;-67
2022/10/10 07:08:27;;;;;;;;;;;22.00;64.00;;;;;;5018964;28;1353;-69
2022/10/10 07:10:53;;;;;;;;;;;22.00;63.90;;;;;;5003440;28;880;-67
2022/10/10 07:13:20;;;;;;;;;;;21.90;63.80;;;;;;5021612;28;861;-68
2022/10/10 07:15:45;;;;;;;;;;;21.90;63.80;;;;;;5023224;28;1911;-69
2022/10/10 07:18:10;;;;;;;;;;;21.90;63.80;;;;;;5025383;28;1371;-67
2022/10/10 07:20:36;;;;;;;;;;;21.90;63.80;;;;;;5021283;28;938;-68
2022/10/10 07:23:02;;;;;;;;;;;21.90;63.80;;;;;;5022023;28;1205;-69
2022/10/10 07:25:27;;;;;;;;;;;21.90;63.80;;;;;;5023072;28;1922;-68
2022/10/10 07:27:53;;;;;;;;;;;21.90;63.80;;;;;;5006644;28;1925;-68
2022/10/10 07:30:18;;;;;;;;;;;21.90;63.90;;;;;;5021993;28;1741;-69
2022/10/10 07:32:44;;;;;;;;;;;21.90;64.20;;;;;;5023013;28;2005;-68
2022/10/10 07:35:10;;;;;;;;;;;21.90;64.40;;;;;;5022518;28;1913;-69
2022/10/10 07:37:36;;;;;;;;;;;22.00;64.90;;;;;;5024768;28;1343;-68
2022/10/10 07:40:01;;;;;;;;;;;21.90;65.00;;;;;;5005320;28;1860;-68
2022/10/10 07:42:27;;;;;;;;;;;22.00;65.00;;;;;;5023100;28;1590;-67
2022/10/10 07:44:52;;;;;;;;;;;22.00;65.20;;;;;;5007068;28;1375;-67
2022/10/10 07:47:18;;;;;;;;;;;22.00;65.30;;;;;;5021313;28;2015;-69
2022/10/10 07:49:43;;;;;;;;;;;22.00;65.30;;;;;;5009748;28;1550;-69
2022/10/10 07:52:09;;;;;;;;;;;22.00;65.30;;;;;;5003722;28;1312;-68
2022/10/10 07:54:34;;;;;;;;;;;22.00;65.50;;;;;;5007900;28;1011;-68
2022/10/10 07:57:00;;;;;;;;;;;22.00;65.50;;;;;;4993687;28;2080;-68
2022/10/10 07:59:25;;;;;;;;;;;22.00;65.60;;;;;;5011142;28;1305;-68
2022/10/10 08:01:51;;;;;;;;;;;22.00;65.60;;;;;;5005207;28;1696;-67
2022/10/10 08:04:16;;;;;;;;;;;22.00;65.70;;;;;;5003628;28;1525;-68
2022/10/10 08:06:42;;;;;;;;;;;22.00;65.70;;;;;;5018946;28;1309;-68
2022/10/10 08:09:07;;;;;;;;;;;22.00;65.80;;;;;;5022095;28;1630;-68
2022/10/10 08:11:33;;;;;;;;;;;22.00;65.80;;;;;;5005575;28;1152;-67
2022/10/10 08:13:58;;;;;;;;;;;22.00;65.80;;;;;;5006670;28;821;-67
2022/10/10 08:16:24;;;;;;;;;;;22.00;65.90;;;;;;5005923;28;1891;-68
2022/10/10 08:18:49;;;;;;;;;;;22.00;65.90;;;;;;5023686;28;1312;-68
2022/10/10 08:21:15;;;;;;;;;;;22.00;65.90;;;;;;5002457;28;2151;-67
2022/10/10 08:23:40;;;;;;;;;;;22.00;65.90;;;;;;4989797;28;1343;-67
2022/10/10 08:26:07;;;;;;;;;;;22.00;65.90;;;;;;5017697;28;2098;-68
2022/10/10 08:28:32;;;;;;;;;;;22.00;66.00;;;;;;4988418;28;1279;-67
2022/10/10 08:30:58;;;;;;;;;;;22.00;66.00;;;;;;5004298;28;1291;-68
2022/10/10 08:33:26;;;;;;;;;;;22.00;66.00;;;;;;5004208;28;1759;-68
2022/10/10 08:35:52;;;;;;;;;;;22.00;66.00;;;;;;5003204;28;1898;-68
2022/10/10 08:38:17;;;;;;;;;;;22.00;66.10;;;;;;5018811;28;1936;-67
2022/10/10 08:40:47;;;;;;;;;;;22.00;66.10;;;;;;5021548;28;1465;-68
2022/10/10 08:43:32;;;;;;;;;;;22.00;66.20;;;;;;4982965;28;4687;-67
2022/10/10 08:45:58;;;;;;;;;;;22.00;66.30;;;;;;5019207;28;1355;-67
2022/10/10 08:48:24;;;;;;;;;;;22.00;66.70;;;;;;5006572;28;1284;-68
2022/10/10 08:50:58;;;;;;;;;;;21.90;66.40;;;;;;5018614;28;864;-67
2022/10/10 08:53:28;;;;;;;;;;;22.00;66.50;;;;;;5007485;28;1025;-67
2022/10/10 08:55:53;;;;;;;;;;;21.90;67.10;;;;;;5008878;28;1977;-68
2022/10/10 08:58:18;;;;;;;;;;;21.90;66.40;;;;;;5007663;28;1269;-67
2022/10/10 09:00:48;;;;;;;;;;;22.00;66.50;;;;;;5019782;28;979;-68
2022/10/10 09:03:18;;;;;;;;;;;22.00;66.50;;;;;;4992230;28;1385;-66
2022/10/10 09:05:49;;;;;;;;;;;21.90;66.50;;;;;;4998720;28;828;-67
2022/10/10 09:08:27;;;;;;;;;;;21.90;66.50;;;;;;5019404;28;1212;-68
2022/10/10 09:10:56;;;;;;;;;;;21.90;66.50;;;;;;5018007;28;918;-68
2022/10/10 09:13:32;;;;;;;;;;;21.90;66.50;;;;;;5000658;28;884;-68
2022/10/10 09:15:57;;;;;;;;;;;21.90;66.60;;;;;;5003032;28;1906;-68
2022/10/10 09:18:23;;;;;;;;;;;21.90;66.60;;;;;;5019289;28;1277;-67
2022/10/10 09:20:54;;;;;;;;;;;21.90;66.80;;;;;;5019580;28;924;-68
2022/10/10 09:23:21;;;;;;;;;;;21.90;66.80;;;;;;5000210;28;2178;-68
2022/10/10 09:25:48;;;;;;;;;;;21.90;66.80;;;;;;5003529;28;1969;-68
2022/10/10 09:28:15;;;;;;;;;;;21.90;66.80;;;;;;5018089;28;1399;-67
2022/10/10 09:30:43;;;;;;;;;;;21.90;66.90;;;;;;5001839;28;1523;-68
2022/10/10 09:33:16;;;;;;;;;;;21.90;67.00;;;;;;5020886;28;1038;-68
2022/10/10 09:35:41;;;;;;;;;;;21.90;67.00;;;;;;5007765;28;1977;-67
2022/10/10 09:38:13;;;;;;;;;;;21.90;67.10;;;;;;5005055;28;1625;-66
2022/10/10 09:40:39;;;;;;;;;;;21.90;67.10;;;;;;5007028;28;1462;-68
2022/10/10 09:43:12;;;;;;;;;;;21.80;67.10;;;;;;5002428;28;1359;-68
2022/10/10 09:45:39;;;;;;;;;;;21.80;67.20;;;;;;5004088;28;1116;-68
2022/10/10 09:48:05;;;;;;;;;;;21.90;67.30;;;;;;5000098;28;1338;-68
2022/10/10 09:50:30;;;;;;;;;;;21.80;67.30;;;;;;5008064;28;1256;-68
2022/10/10 09:52:56;;;;;;;;;;;21.80;67.50;;;;;;5018830;28;1502;-68
2022/10/10 09:55:25;;;;;;;;;;;21.80;67.50;;;;;;5003739;28;1962;-67
2022/10/10 09:57:52;;;;;;;;;;;21.80;67.70;;;;;;5018891;28;1333;-68
2022/10/10 10:00:17;;;;;;;;;;;21.80;67.80;;;;;;5002822;28;1481;-68
2022/10/10 10:02:43;;;;;;;;;;;21.80;68.00;;;;;;5015401;28;1300;-67
2022/10/10 10:05:16;;;;;;;;;;;21.80;68.10;;;;;;5003455;28;1207;-66
2022/10/10 10:07:45;;;;;;;;;;;21.80;68.30;;;;;;5004588;28;1440;-66
2022/10/10 10:10:21;;;;;;;;;;;21.80;68.50;;;;;;5000346;28;1669;-67
2022/10/10 10:12:46;;;;;;;;;;;21.80;68.60;;;;;;5004126;28;1511;-67
2022/10/10 10:15:15;;;;;;;;;;;21.80;68.80;;;;;;5002899;28;2301;-67
2022/10/10 10:17:41;;;;;;;;;;;21.80;69.00;;;;;;5023737;28;1453;-67
2022/10/10 10:20:25;;;;;;;;;;;21.80;69.10;;;;;;5004490;28;1248;-67
2022/10/10 10:22:50;;;;;;;;;;;21.70;69.10;;;;;;5025051;28;1357;-67
2022/10/10 10:25:35;;;;;;;;;;;21.80;69.70;;;;;;5027855;28;1524;-67
2022/10/10 10:28:10;;;;;;;;;;;21.80;69.30;;;;;;5007921;28;1613;-68
2022/10/10 10:30:36;;;;;;;;;;;21.80;69.30;;;;;;5016554;28;1570;-67
2022/10/10 10:33:05;;;;;;;;;;;21.80;69.30;;;;;;5007327;28;1395;-67
2022/10/10 10:35:45;;;;;;;;;;;21.80;69.70;;;;;;5008925;28;1895;-68
2022/10/10 10:38:13;;;;;;;;;;;21.80;69.50;;;;;;5006438;28;1504;-69
2022/10/10 10:40:40;;;;;;;;;;;21.90;69.50;;;;;;5009868;28;1244;-68
2022/10/10 10:43:17;;;;;;;;;;;21.90;69.40;;;;;;5019221;28;1383;-69
2022/10/10 10:46:01;;;;;;;;;;;21.90;69.30;;;;;;5019289;28;996;-69
2022/10/10 10:48:30;;;;;;;;;;;21.90;69.50;;;;;;5023224;28;1378;-68
2022/10/10 10:51:01;;;;;;;;;;;21.90;69.40;;;;;;5004916;28;1336;-68
2022/10/10 10:53:45;;;;;;;;;;;21.90;69.50;;;;;;5004973;28;1241;-68
2022/10/10 10:56:22;;;;;;;;;;;21.90;69.30;;;;;;5020393;28;1960;-67
2022/10/10 10:58:53;;;;;;;;;;;21.90;69.20;;;;;;5020506;28;1212;-68
2022/10/10 11:01:25;;;;;;;;;;;21.90;69.10;;;;;;5006468;28;1400;-68
2022/10/10 11:04:09;;;;;;;;;;;21.90;69.00;;;;;;5022023;28;1434;-68
2022/10/10 11:06:36;;;;;;;;;;;21.90;69.10;;;;;;5020221;28;1288;-67
2022/10/10 11:09:15;;;;;;;;;;;21.90;69.10;;;;;;5005097;28;1460;-69
2022/10/10 11:11:52;;;;;;;;;;;21.90;69.10;;;;;;5005677;28;918;-69
2022/10/10 11:14:33;;;;;;;;;;;21.80;69.10;;;;;;5022067;28;1864;-68
2022/10/10 11:17:00;;;;;;;;;;;21.80;69.20;;;;;;5003195;28;1902;-68
2022/10/10 11:19:30;;;;;;;;;;;21.80;69.20;;;;;;5001597;28;1369;-69
2022/10/10 11:22:03;;;;;;;;;;;21.80;69.20;;;;;;5012411;28;1562;-69
2022/10/10 11:24:32;;;;;;;;;;;21.80;69.20;;;;;;5020165;28;1837;-69
2022/10/10 11:26:59;;;;;;;;;;;21.80;69.10;;;;;;5008744;28;1607;-69
2022/10/10 11:29:34;;;;;;;;;;;21.80;69.40;;;;;;5008883;28;1331;-69
2022/10/10 11:32:26;;;;;;;;;;;21.80;69.40;;;;;;5005930;28;1356;-68
2022/10/10 11:34:57;;;;;;;;;;;21.80;69.90;;;;;;4981406;28;1876;-69
2022/10/10 11:37:26;;;;;;;;;;;21.80;69.50;;;;;;5002369;28;1895;-69
2022/10/10 11:39:55;;;;;;;;;;;21.80;69.70;;;;;;5008077;28;1534;-69
2022/10/10 11:42:25;;;;;;;;;;;21.80;69.60;;;;;;5006053;28;1346;-68
2022/10/10 11:45:06;;;;;;;;;;;21.80;69.60;;;;;;5005647;28;1487;-70
2022/10/10 11:47:33;;;;;;;;;;;21.70;69.50;;;;;;5020862;28;1405;-69
2022/10/10 11:50:00;;;;;;;;;;;21.70;69.70;;;;;;5002582;28;1048;-68
2022/10/10 11:52:30;;;;;;;;;;;21.70;69.60;;;;;;5005937;28;1477;-68
2022/10/10 11:55:09;;;;;;;;;;;21.70;69.70;;;;;;5021901;28;922;-69
2022/10/10 11:57:37;;;;;;;;;;;21.70;69.70;;;;;;5007017;28;1283;-68
2022/10/10 12:00:06;;;;;;;;;;;21.70;69.80;;;;;;5007186;28;1064;-68
2022/10/10 12:02:32;;;;;;;;;;;21.70;70.00;;;;;;5003126;28;1230;-68
2022/10/10 12:04:57;;;;;;;;;;;21.70;70.20;;;;;;5005470;28;1357;-67
2022/10/10 12:07:30;;;;;;;;;;;21.70;70.50;;;;;;5020099;28;1964;-67
2022/10/10 12:09:58;;;;;;;;;;;21.80;70.50;;;;;;5021303;28;1396;-67
2022/10/10 12:12:25;;;;;;;;;;;21.70;68.00;;;;;;5004366;28;1331;-66
2022/10/10 12:14:53;;;;;;;;;;;21.70;65.30;;;;;;5004362;28;1356;-66
2022/10/10 12:17:19;;;;;;;;;;;21.60;64.30;;;;;;5023332;28;1898;-66
2022/10/10 12:19:46;;;;;;;;;;;21.60;64.10;;;;;;5023091;28;1297;-67
2022/10/10 12:22:19;;;;;;;;;;;21.60;63.40;;;;;;5020866;28;1399;-66
2022/10/10 12:25:04;;;;;;;;;;;21.50;62.80;;;;;;5001150;28;1525;-66
2022/10/10 12:27:50;;;;;;;;;;;21.50;62.00;;;;;;5002215;28;1461;-65
2022/10/10 12:30:18;;;;;;;;;;;21.50;60.70;;;;;;4982771;28;1310;-66
2022/10/10 12:32:48;;;;;;;;;;;21.40;60.00;;;;;;5002795;28;1958;-66
2022/10/10 12:35:26;;;;;;;;;;;21.40;60.00;;;;;;5003518;28;1914;-65
2022/10/10 12:38:04;;;;;;;;;;;21.30;59.80;;;;;;5018376;28;1297;-64
2022/10/10 12:40:30;;;;;;;;;;;21.30;59.50;;;;;;5019002;28;1420;-66
2022/10/10 12:42:55;;;;;;;;;;;21.30;59.20;;;;;;5000940;28;906;-65
2022/10/10 12:45:29;;;;;;;;;;;21.30;59.20;;;;;;5019336;28;1464;-66
2022/10/10 12:47:58;;;;;;;;;;;21.30;59.50;;;;;;5020292;28;1345;-66
2022/10/10 12:50:27;;;;;;;;;;;21.20;59.70;;;;;;5018265;28;857;-66
2022/10/10 12:52:52;;;;;;;;;;;21.20;59.30;;;;;;5005742;28;801;-66
2022/10/10 12:55:21;;;;;;;;;;;21.20;59.20;;;;;;5019751;28;1906;-66
2022/10/10 12:57:47;;;;;;;;;;;21.20;59.30;;;;;;5017249;28;1323;-66
2022/10/10 13:00:12;;;;;;;;;;;21.20;60.70;;;;;;5004139;28;968;-66
2022/10/10 13:02:39;;;;;;;;;;;21.20;61.30;;;;;;5017343;28;1065;-66
2022/10/10 13:05:05;;;;;;;;;;;21.10;60.40;;;;;;5001235;28;1771;-66
2022/10/10 13:07:30;;;;;;;;;;;21.10;60.70;;;;;;4999405;28;1710;-65
2022/10/10 13:10:02;;;;;;;;;;;21.10;61.50;;;;;;5004265;28;1975;-66
2022/10/10 13:12:28;;;;;;;;;;;21.10;60.70;;;;;;5003485;28;1278;-66
2022/10/10 13:14:54;;;;;;;;;;;21.10;61.80;;;;;;5002463;28;812;-66
2022/10/10 13:17:22;;;;;;;;;;;21.10;60.70;;;;;;5006294;28;1898;-66
2022/10/10 13:19:48;;;;;;;;;;;21.10;61.30;;;;;;5013832;28;814;-66
2022/10/10 13:22:14;;;;;;;;;;;21.10;60.90;;;;;;4998440;28;961;-66
2022/10/10 13:24:40;;;;;;;;;;;21.10;61.30;;;;;;4982689;28;1435;-66
2022/10/10 13:27:05;;;;;;;;;;;21.10;61.50;;;;;;5018886;28;1303;-65
2022/10/10 13:29:31;;;;;;;;;;;21.10;61.00;;;;;;4998802;28;870;-66
2022/10/10 13:32:07;;;;;;;;;;;21.10;60.60;;;;;;5001428;28;1393;-66
2022/10/10 13:34:34;;;;;;;;;;;21.00;60.10;;;;;;5017745;28;2178;-66
2022/10/10 13:37:00;;;;;;;;;;;21.00;60.70;;;;;;4987515;28;1951;-66
2022/10/10 13:39:25;;;;;;;;;;;21.00;60.20;;;;;;5004001;28;1387;-66
2022/10/10 13:41:51;;;;;;;;;;;21.00;60.20;;;;;;5004565;28;1546;-66
2022/10/10 13:44:21;;;;;;;;;;;21.00;59.50;;;;;;5005454;28;1402;-66
2022/10/10 13:46:46;;;;;;;;;;;21.00;59.60;;;;;;5007164;28;1848;-66
2022/10/10 13:49:12;;;;;;;;;;;21.00;59.40;;;;;;5004864;28;1070;-66
2022/10/10 13:51:44;;;;;;;;;;;21.00;59.20;;;;;;5020583;28;1202;-67
2022/10/10 13:54:28;;;;;;;;;;;21.00;58.50;;;;;;5007554;28;1420;-66
2022/10/10 13:56:54;;;;;;;;;;;20.90;58.00;;;;;;5021058;28;1886;-66
2022/10/10 13:59:19;;;;;;;;;;;20.90;57.60;;;;;;5025339;28;1365;-67
2022/10/10 14:01:45;;;;;;;;;;;20.90;58.00;;;;;;5019330;28;1446;-65
2022/10/10 14:04:17;;;;;;;;;;;20.90;58.00;;;;;;5024128;28;1273;-67
2022/10/10 14:06:51;;;;;;;;;;;20.90;57.60;;;;;;5024635;28;1996;-66
2022/10/10 14:09:16;;;;;;;;;;;20.90;57.30;;;;;;5021503;28;2038;-66
2022/10/10 14:11:42;;;;;;;;;;;20.90;56.90;;;;;;5020288;28;1421;-66
2022/10/10 14:14:13;;;;;;;;;;;20.90;58.40;;;;;;5022956;28;781;-66
2022/10/10 14:16:39;;;;;;;;;;;20.90;57.40;;;;;;5023363;28;1952;-66
2022/10/10 14:19:08;;;;;;;;;;;20.90;56.10;;;;;;5017580;28;998;-66
2022/10/10 14:21:33;;;;;;;;;;;20.80;56.70;;;;;;4985667;28;1293;-66
2022/10/10 14:23:58;;;;;;;;;;;20.80;57.80;;;;;;5020197;28;900;-66
2022/10/10 14:26:24;;;;;;;;;;;20.80;57.10;;;;;;5017893;28;1352;-67
2022/10/10 14:28:49;;;;;;;;;;;20.80;56.50;;;;;;5018053;28;1395;-66
2022/10/10 14:31:15;;;;;;;;;;;20.80;55.90;;;;;;5019385;28;1443;-66
2022/10/10 14:33:40;;;;;;;;;;;20.80;56.40;;;;;;5017299;28;1065;-66
2022/10/10 14:36:06;;;;;;;;;;;20.80;56.00;;;;;;5019675;28;1902;-66